Time;durP1;ratioP1;P1;durP2;ratioP2;P2;SDS_P1;SDS_P2;PMS_P1;PMS_P2;Temp;Humidity;BMP_temperature;BMP_pressure;BME280_temperature;BME280_humidity;BME280_pressure;Samples;Min_cycle;Max_cycle;Signal;HPM_P1;HPM_P2
2022/10/15 00:01:38;;;;;;;7.43;4.47;;;;;;;;;;4420805;32;20236;-86
2022/10/15 00:04:06;;;;;;;8.20;4.67;;;;;;;;;;4422054;32;20689;-88
2022/10/15 00:06:35;;;;;;;7.63;4.77;;;;;;;;;;4421913;32;20591;-86
2022/10/15 00:09:04;;;;;;;9.17;3.73;;;;;;;;;;4421935;32;20232;-86
2022/10/15 00:11:32;;;;;;;12.00;3.73;;;;;;;;;;4421947;32;20276;-86
2022/10/15 00:14:00;;;;;;;7.10;3.90;;;;;;;;;;4421837;32;20235;-86
2022/10/15 00:16:29;;;;;;;6.40;3.10;;;;;;;;;;4421641;32;20577;-86
2022/10/15 00:18:57;;;;;;;11.73;4.37;;;;;;;;;;4408786;32;20241;-86
2022/10/15 00:21:24;;;;;;;4.73;2.73;;;;;;;;;;4422337;32;20269;-86
2022/10/15 00:23:51;;;;;;;8.43;3.83;;;;;;;;;;4421758;32;20396;-86
2022/10/15 00:26:24;;;;;;;4.20;3.03;;;;;;;;;;4422341;32;20273;-86
2022/10/15 00:28:53;;;;;;;14.47;3.50;;;;;;;;;;4422117;32;20347;-86
2022/10/15 00:31:23;;;;;;;9.63;7.37;;;;;;;;;;4422175;32;20302;-86
2022/10/15 00:33:51;;;;;;;18.17;11.07;;;;;;;;;;4422129;32;20318;-86
2022/10/15 00:36:20;;;;;;;12.87;7.13;;;;;;;;;;4422201;32;20209;-86
2022/10/15 00:38:47;;;;;;;11.13;6.73;;;;;;;;;;4421677;32;20227;-86
2022/10/15 00:41:18;;;;;;;9.37;5.93;;;;;;;;;;4421230;32;20298;-88
2022/10/15 00:43:49;;;;;;;7.03;4.80;;;;;;;;;;4422282;32;20581;-86
2022/10/15 00:46:21;;;;;;;17.53;7.40;;;;;;;;;;4422219;32;20205;-86
2022/10/15 00:48:50;;;;;;;9.70;6.13;;;;;;;;;;4422020;32;20282;-86
2022/10/15 00:51:20;;;;;;;8.67;4.80;;;;;;;;;;4422117;32;20217;-87
2022/10/15 00:53:48;;;;;;;8.43;4.70;;;;;;;;;;4422020;32;20213;-86
2022/10/15 00:56:17;;;;;;;8.63;4.77;;;;;;;;;;4422116;32;20269;-86
2022/10/15 00:58:46;;;;;;;7.47;4.03;;;;;;;;;;4422109;32;20208;-86
2022/10/15 01:01:14;;;;;;;8.73;5.27;;;;;;;;;;4421665;32;20205;-87
2022/10/15 01:03:41;;;;;;;10.03;4.50;;;;;;;;;;4421750;32;20243;-86
2022/10/15 01:06:08;;;;;;;9.83;4.10;;;;;;;;;;4422915;32;20549;-86
2022/10/15 01:08:35;;;;;;;11.63;4.67;;;;;;;;;;4424197;32;20217;-86
2022/10/15 01:11:13;;;;;;;7.27;3.63;;;;;;;;;;4423946;32;20233;-86
2022/10/15 01:13:52;;;;;;;8.70;3.83;;;;;;;;;;4424727;32;20290;-86
2022/10/15 01:16:27;;;;;;;5.70;3.33;;;;;;;;;;4424366;32;20527;-86
2022/10/15 01:19:02;;;;;;;5.73;3.27;;;;;;;;;;4424577;32;20216;-86
2022/10/15 01:21:34;;;;;;;7.23;3.40;;;;;;;;;;4424697;32;20568;-87
2022/10/15 01:24:26;;;;;;;17.80;3.93;;;;;;;;;;4423701;32;20233;-86
2022/10/15 01:27:19;;;;;;;7.90;5.53;;;;;;;;;;4423746;32;20289;-86
2022/10/15 01:30:07;;;;;;;11.10;5.67;;;;;;;;;;4424377;32;20317;-86
2022/10/15 01:32:39;;;;;;;11.10;6.33;;;;;;;;;;4423468;32;20197;-86
2022/10/15 01:35:14;;;;;;;16.53;5.87;;;;;;;;;;4424032;32;20255;-86
2022/10/15 01:37:46;;;;;;;10.27;5.33;;;;;;;;;;4423551;32;20374;-87
2022/10/15 01:40:17;;;;;;;25.97;16.57;;;;;;;;;;4422995;32;20244;-86
2022/10/15 01:42:54;;;;;;;27.47;20.10;;;;;;;;;;4424478;32;20264;-87
2022/10/15 01:45:27;;;;;;;11.47;8.23;;;;;;;;;;4422918;32;20317;-86
2022/10/15 01:47:58;;;;;;;13.10;5.83;;;;;;;;;;4424407;32;20208;-86
2022/10/15 01:50:27;;;;;;;9.80;4.63;;;;;;;;;;4423032;32;20319;-86
2022/10/15 01:52:57;;;;;;;9.63;4.57;;;;;;;;;;4424222;32;20699;-86
2022/10/15 01:55:26;;;;;;;12.80;5.33;;;;;;;;;;4424463;32;20289;-86
2022/10/15 01:57:57;;;;;;;6.07;4.43;;;;;;;;;;4424000;32;20225;-86
2022/10/15 02:00:25;;;;;;;7.07;4.63;;;;;;;;;;4424555;32;20268;-86
2022/10/15 02:02:53;;;;;;;10.60;5.17;;;;;;;;;;4423005;32;20308;-87
2022/10/15 02:05:26;;;;;;;14.67;6.97;;;;;;;;;;4423968;32;20667;-86
2022/10/15 02:07:58;;;;;;;12.83;7.47;;;;;;;;;;4424084;32;20213;-88
2022/10/15 02:10:32;;;;;;;7.97;6.27;;;;;;;;;;4425128;32;20532;-86
2022/10/15 02:13:09;;;;;;;7.93;5.77;;;;;;;;;;4424981;32;20221;-86
2022/10/15 02:15:48;;;;;;;9.37;5.43;;;;;;;;;;4425656;32;20272;-87
2022/10/15 02:18:21;;;;;;;8.13;4.37;;;;;;;;;;4426238;32;20226;-89
2022/10/15 02:20:56;;;;;;;8.50;5.53;;;;;;;;;;4425974;32;20271;-86
2022/10/15 02:23:27;;;;;;;10.70;5.10;;;;;;;;;;4425985;32;20205;-85
2022/10/15 02:25:58;;;;;;;13.73;5.73;;;;;;;;;;4426792;32;20229;-88
2022/10/15 02:28:28;;;;;;;11.90;6.00;;;;;;;;;;4426985;32;20201;-88
2022/10/15 02:30:57;;;;;;;13.37;5.60;;;;;;;;;;4425772;32;20229;-88
2022/10/15 02:33:25;;;;;;;10.30;5.90;;;;;;;;;;4424486;32;20613;-88
2022/10/15 02:35:54;;;;;;;6.87;4.60;;;;;;;;;;4424362;32;20654;-88
2022/10/15 02:38:25;;;;;;;12.57;4.73;;;;;;;;;;4424902;32;20280;-88
2022/10/15 02:40:53;;;;;;;5.97;4.87;;;;;;;;;;4424959;32;20374;-88
2022/10/15 02:43:21;;;;;;;13.03;5.80;;;;;;;;;;4424112;32;20204;-87
2022/10/15 02:45:49;;;;;;;13.07;6.47;;;;;;;;;;4424226;32;20268;-88
2022/10/15 02:48:16;;;;;;;9.57;5.50;;;;;;;;;;4423884;32;20205;-88
2022/10/15 02:50:43;;;;;;;9.87;5.00;;;;;;;;;;4424304;32;20221;-88
2022/10/15 02:53:11;;;;;;;17.43;7.93;;;;;;;;;;4425395;32;20205;-88
2022/10/15 02:55:38;;;;;;;10.27;6.10;;;;;;;;;;4426643;32;20217;-88
2022/10/15 02:58:05;;;;;;;9.10;5.93;;;;;;;;;;4425774;32;20200;-88
2022/10/15 03:00:32;;;;;;;8.00;4.77;;;;;;;;;;4425360;32;20309;-88
2022/10/15 03:02:59;;;;;;;6.20;3.63;;;;;;;;;;4425038;32;20240;-88
2022/10/15 03:05:26;;;;;;;5.23;4.03;;;;;;;;;;4425450;32;20217;-88
2022/10/15 03:07:54;;;;;;;8.37;4.87;;;;;;;;;;4424202;32;20221;-88
2022/10/15 03:10:24;;;;;;;5.17;3.67;;;;;;;;;;4424035;32;20358;-88
2022/10/15 03:12:52;;;;;;;8.57;4.30;;;;;;;;;;4423017;32;20336;-87
2022/10/15 03:15:19;;;;;;;11.03;7.03;;;;;;;;;;4423132;32;20216;-87
2022/10/15 03:17:46;;;;;;;13.43;7.33;;;;;;;;;;4422871;32;20237;-88
2022/10/15 03:20:15;;;;;;;7.77;6.17;;;;;;;;;;4423368;32;20272;-88
2022/10/15 03:22:46;;;;;;;9.43;5.70;;;;;;;;;;4423063;32;20335;-87
2022/10/15 03:25:14;;;;;;;7.23;5.47;;;;;;;;;;4421851;32;20503;-88
2022/10/15 03:27:47;;;;;;;12.50;5.93;;;;;;;;;;4421592;32;20330;-89
2022/10/15 03:30:13;;;;;;;14.50;6.20;;;;;;;;;;4423036;32;20225;-88
2022/10/15 03:32:40;;;;;;;11.83;6.07;;;;;;;;;;4422256;32;20282;-87
2022/10/15 03:35:08;;;;;;;9.17;5.17;;;;;;;;;;4422254;32;20269;-88
2022/10/15 03:37:38;;;;;;;8.53;4.83;;;;;;;;;;4422675;32;20252;-88
2022/10/15 03:40:06;;;;;;;10.73;5.20;;;;;;;;;;4421843;32;20259;-87
2022/10/15 03:42:33;;;;;;;11.07;6.23;;;;;;;;;;4422805;32;20606;-88
2022/10/15 03:45:01;;;;;;;15.27;5.67;;;;;;;;;;4422511;32;20651;-88
2022/10/15 03:47:28;;;;;;;8.40;5.63;;;;;;;;;;4422046;32;20281;-87
2022/10/15 03:49:55;;;;;;;9.33;4.93;;;;;;;;;;4421949;32;20225;-86
2022/10/15 03:52:22;;;;;;;8.70;5.03;;;;;;;;;;4422074;32;20614;-87
2022/10/15 03:54:49;;;;;;;12.00;5.13;;;;;;;;;;4421952;32;20221;-88
2022/10/15 03:57:16;;;;;;;6.23;5.23;;;;;;;;;;4422112;32;20197;-88
2022/10/15 03:59:45;;;;;;;8.87;5.00;;;;;;;;;;4421888;32;20281;-88
2022/10/15 04:02:14;;;;;;;9.17;5.70;;;;;;;;;;4422000;32;20259;-88
2022/10/15 04:04:41;;;;;;;11.03;5.70;;;;;;;;;;4421711;32;20651;-87
2022/10/15 04:07:08;;;;;;;13.20;5.93;;;;;;;;;;4421745;32;20245;-87
2022/10/15 04:09:35;;;;;;;11.37;6.80;;;;;;;;;;4421778;32;20236;-87
2022/10/15 04:12:02;;;;;;;10.20;6.10;;;;;;;;;;4421839;32;20284;-88
2022/10/15 04:14:29;;;;;;;14.27;7.63;;;;;;;;;;4421872;32;20270;-87
2022/10/15 04:16:57;;;;;;;17.60;8.17;;;;;;;;;;4421204;32;20221;-87
2022/10/15 04:19:26;;;;;;;21.67;8.27;;;;;;;;;;4420369;32;20266;-87
2022/10/15 04:21:53;;;;;;;12.27;6.73;;;;;;;;;;4421603;32;20205;-87
2022/10/15 04:24:20;;;;;;;11.73;7.20;;;;;;;;;;4421683;32;20729;-87
2022/10/15 04:26:47;;;;;;;12.30;7.93;;;;;;;;;;4422167;32;20209;-87
2022/10/15 04:29:15;;;;;;;14.60;7.30;;;;;;;;;;4421890;32;20228;-87
2022/10/15 04:31:44;;;;;;;18.63;7.40;;;;;;;;;;4422317;32;20277;-88
2022/10/15 04:34:11;;;;;;;12.80;6.63;;;;;;;;;;4421717;32;20237;-87
2022/10/15 04:36:39;;;;;;;15.70;8.43;;;;;;;;;;4421744;32;20214;-87
2022/10/15 04:39:06;;;;;;;11.63;6.60;;;;;;;;;;4422319;32;20228;-87
2022/10/15 04:41:33;;;;;;;13.53;5.80;;;;;;;;;;4424081;32;20250;-88
2022/10/15 04:44:00;;;;;;;8.70;6.03;;;;;;;;;;4424684;32;20244;-87
2022/10/15 04:46:27;;;;;;;10.00;5.70;;;;;;;;;;4424696;32;20225;-88
2022/10/15 04:48:56;;;;;;;11.07;6.47;;;;;;;;;;4424617;32;20232;-87
2022/10/15 04:51:25;;;;;;;8.33;5.83;;;;;;;;;;4424486;32;20612;-87
2022/10/15 04:53:55;;;;;;;13.50;6.73;;;;;;;;;;4423248;32;20308;-87
2022/10/15 04:56:22;;;;;;;18.83;6.33;;;;;;;;;;4425009;32;20340;-87
2022/10/15 04:58:50;;;;;;;11.80;6.03;;;;;;;;;;4424730;32;20665;-87
2022/10/15 05:01:18;;;;;;;10.27;6.70;;;;;;;;;;4424432;32;20257;-87
2022/10/15 05:03:51;;;;;;;10.10;6.70;;;;;;;;;;4424470;32;20685;-87
2022/10/15 05:06:22;;;;;;;9.00;6.93;;;;;;;;;;4425021;32;20250;-87
2022/10/15 05:08:50;;;;;;;19.30;7.57;;;;;;;;;;4424671;32;20740;-87
2022/10/15 05:11:20;;;;;;;11.70;7.73;;;;;;;;;;4424772;32;20213;-87
2022/10/15 05:13:47;;;;;;;15.63;7.10;;;;;;;;;;4424539;32;20270;-87
2022/10/15 05:16:17;;;;;;;15.47;7.10;;;;;;;;;;4424602;32;20681;-88
2022/10/15 05:18:47;;;;;;;15.10;7.80;;;;;;;;;;4424315;32;20260;-87
2022/10/15 05:21:15;;;;;;;18.93;9.33;;;;;;;;;;4423778;32;20233;-87
2022/10/15 05:23:43;;;;;;;24.10;15.80;;;;;;;;;;4424075;32;20379;-87
2022/10/15 05:26:12;;;;;;;25.67;18.53;;;;;;;;;;4422799;32;20282;-87
2022/10/15 05:28:43;;;;;;;24.07;17.37;;;;;;;;;;4424022;32;20222;-87
2022/10/15 05:31:12;;;;;;;18.10;10.80;;;;;;;;;;4424440;32;20216;-87
2022/10/15 05:33:39;;;;;;;13.20;9.90;;;;;;;;;;4423938;32;20256;-87
2022/10/15 05:36:11;;;;;;;14.30;7.90;;;;;;;;;;4422754;32;20243;-87
2022/10/15 05:38:38;;;;;;;16.80;9.27;;;;;;;;;;4410095;32;20259;-87
2022/10/15 05:41:05;;;;;;;14.13;8.50;;;;;;;;;;4423827;32;20258;-87
2022/10/15 05:43:32;;;;;;;19.83;7.60;;;;;;;;;;4423079;32;20273;-87
2022/10/15 05:46:01;;;;;;;13.43;7.77;;;;;;;;;;4423748;32;20227;-88
2022/10/15 05:48:28;;;;;;;12.10;7.53;;;;;;;;;;4424201;32;20221;-88
2022/10/15 05:51:00;;;;;;;16.10;8.47;;;;;;;;;;4423290;32;20239;-87
2022/10/15 05:53:27;;;;;;;14.63;9.57;;;;;;;;;;4423885;32;20653;-88
2022/10/15 05:55:55;;;;;;;19.10;10.00;;;;;;;;;;4424062;32;20259;-87
2022/10/15 05:58:22;;;;;;;18.70;13.17;;;;;;;;;;4423601;32;20633;-87
2022/10/15 06:00:53;;;;;;;17.10;10.40;;;;;;;;;;4423101;32;20245;-87
2022/10/15 06:03:22;;;;;;;13.97;10.20;;;;;;;;;;4423665;32;20530;-87
2022/10/15 06:05:49;;;;;;;19.07;11.73;;;;;;;;;;4424104;32;20209;-87
2022/10/15 06:08:16;;;;;;;19.03;12.93;;;;;;;;;;4422657;32;20236;-87
2022/10/15 06:10:44;;;;;;;18.80;11.93;;;;;;;;;;4423452;32;20221;-87
2022/10/15 06:13:11;;;;;;;19.90;13.80;;;;;;;;;;4423799;32;20275;-88
2022/10/15 06:15:40;;;;;;;23.00;12.93;;;;;;;;;;4423874;32;20201;-87
2022/10/15 06:18:08;;;;;;;28.27;16.10;;;;;;;;;;4423311;32;20224;-87
2022/10/15 06:20:37;;;;;;;19.77;13.63;;;;;;;;;;4423813;32;20229;-87
2022/10/15 06:23:05;;;;;;;20.83;13.53;;;;;;;;;;4423661;32;20225;-87
2022/10/15 06:25:34;;;;;;;63.83;30.80;;;;;;;;;;4423786;32;20326;-87
2022/10/15 06:28:02;;;;;;;65.27;26.10;;;;;;;;;;4423479;32;20649;-88
2022/10/15 06:30:30;;;;;;;41.90;23.97;;;;;;;;;;4423072;32;20239;-87
2022/10/15 06:32:58;;;;;;;41.43;21.70;;;;;;;;;;4422980;32;20234;-87
2022/10/15 06:35:29;;;;;;;33.10;19.40;;;;;;;;;;4423007;32;20229;-87
2022/10/15 06:38:00;;;;;;;31.60;17.90;;;;;;;;;;4423223;32;20217;-87
2022/10/15 06:40:27;;;;;;;23.33;15.53;;;;;;;;;;4423429;32;20223;-87
2022/10/15 06:42:53;;;;;;;25.17;13.97;;;;;;;;;;4422826;32;20296;-87
2022/10/15 06:45:21;;;;;;;17.87;12.87;;;;;;;;;;4422987;32;20227;-87
2022/10/15 06:47:48;;;;;;;18.40;11.03;;;;;;;;;;4422842;32;20264;-88
2022/10/15 06:50:15;;;;;;;21.77;12.50;;;;;;;;;;4423307;32;20279;-88
2022/10/15 06:52:43;;;;;;;23.23;13.13;;;;;;;;;;4422770;32;20284;-87
2022/10/15 06:55:11;;;;;;;23.43;14.17;;;;;;;;;;4423237;32;20206;-88
2022/10/15 06:57:38;;;;;;;24.67;14.10;;;;;;;;;;4422720;32;20213;-87
2022/10/15 07:00:06;;;;;;;25.20;14.70;;;;;;;;;;4422287;32;20249;-88
2022/10/15 07:02:35;;;;;;;24.23;15.83;;;;;;;;;;4422411;32;20233;-87
2022/10/15 07:05:02;;;;;;;20.93;15.67;;;;;;;;;;4422661;32;20228;-87
2022/10/15 07:07:28;;;;;;;21.40;10.23;;;;;;;;;;4422560;32;20294;-86
2022/10/15 07:09:58;;;;;;;24.63;8.73;;;;;;;;;;4422661;32;20573;-88
2022/10/15 07:12:26;;;;;;;15.80;7.87;;;;;;;;;;4423322;32;20284;-87
2022/10/15 07:14:53;;;;;;;10.27;7.40;;;;;;;;;;4422484;32;20228;-87
2022/10/15 07:17:21;;;;;;;10.20;6.90;;;;;;;;;;4422159;32;20668;-88
2022/10/15 07:19:48;;;;;;;17.00;8.07;;;;;;;;;;4421167;32;20253;-87
2022/10/15 07:22:15;;;;;;;11.23;7.20;;;;;;;;;;4422518;32;20251;-87
2022/10/15 07:24:42;;;;;;;9.30;7.07;;;;;;;;;;4422358;32;20229;-87
2022/10/15 07:27:09;;;;;;;12.70;5.77;;;;;;;;;;4422850;32;20248;-88
2022/10/15 07:29:37;;;;;;;8.90;6.07;;;;;;;;;;4422200;32;20247;-87
2022/10/15 07:32:04;;;;;;;10.07;5.37;;;;;;;;;;4422181;32;20573;-87
2022/10/15 07:34:32;;;;;;;11.47;6.77;;;;;;;;;;4422321;32;20225;-88
2022/10/15 07:36:59;;;;;;;7.40;5.63;;;;;;;;;;4422922;32;20197;-87
2022/10/15 07:39:28;;;;;;;6.97;5.47;;;;;;;;;;4422204;32;20251;-87
2022/10/15 07:41:55;;;;;;;11.97;6.03;;;;;;;;;;4421090;32;20272;-87
2022/10/15 07:44:23;;;;;;;10.53;5.83;;;;;;;;;;4422287;32;20669;-87
2022/10/15 07:46:51;;;;;;;7.90;4.47;;;;;;;;;;4422546;32;20216;-88
2022/10/15 07:49:18;;;;;;;6.83;4.77;;;;;;;;;;4422075;32;20229;-87
2022/10/15 07:51:45;;;;;;;9.50;5.73;;;;;;;;;;4422718;32;20247;-87
2022/10/15 07:54:14;;;;;;;6.70;5.23;;;;;;;;;;4422052;32;20274;-87
2022/10/15 07:56:40;;;;;;;8.30;4.80;;;;;;;;;;4422460;32;20219;-87
2022/10/15 07:59:09;;;;;;;7.67;5.37;;;;;;;;;;4422014;32;20280;-88
2022/10/15 08:01:36;;;;;;;10.13;4.87;;;;;;;;;;4422470;32;20659;-87
2022/10/15 08:04:06;;;;;;;9.93;5.50;;;;;;;;;;4421771;32;20331;-87
2022/10/15 08:06:33;;;;;;;8.20;6.43;;;;;;;;;;4422479;32;20287;-87
2022/10/15 08:09:02;;;;;;;12.63;6.63;;;;;;;;;;4421753;32;20271;-87
2022/10/15 08:11:31;;;;;;;9.25;5.78;;;;;;;;;;4422395;32;20284;-87
2022/10/15 08:13:58;;;;;;;15.23;5.90;;;;;;;;;;4421600;32;20225;-87
2022/10/15 08:16:25;;;;;;;10.43;6.30;;;;;;;;;;4420694;32;20212;-87
2022/10/15 08:18:52;;;;;;;7.40;5.97;;;;;;;;;;4421694;32;20241;-87
2022/10/15 08:21:23;;;;;;;6.83;4.87;;;;;;;;;;4421928;32;20227;-87
2022/10/15 08:23:50;;;;;;;10.67;5.30;;;;;;;;;;4422090;32;20240;-87
2022/10/15 08:26:19;;;;;;;11.60;5.60;;;;;;;;;;4421711;32;20289;-87
2022/10/15 08:28:46;;;;;;;14.87;6.60;;;;;;;;;;4420420;32;20241;-87
2022/10/15 08:31:13;;;;;;;6.80;5.50;;;;;;;;;;4421803;32;20304;-87
2022/10/15 08:33:40;;;;;;;12.60;5.00;;;;;;;;;;4422062;32;20220;-86
2022/10/15 08:36:10;;;;;;;7.53;4.60;;;;;;;;;;4422282;32;20213;-87
2022/10/15 08:38:41;;;;;;;13.27;5.67;;;;;;;;;;4420622;32;20287;-87
2022/10/15 08:41:22;;;;;;;5.50;4.80;;;;;;;;;;4422331;32;20227;-88
2022/10/15 08:43:53;;;;;;;5.77;4.57;;;;;;;;;;4422305;32;20223;-88
2022/10/15 08:46:25;;;;;;;9.00;5.03;;;;;;;;;;4421156;32;20229;-87
2022/10/15 08:48:55;;;;;;;6.60;5.07;;;;;;;;;;4422159;32;20225;-88
2022/10/15 08:51:25;;;;;;;7.43;4.80;;;;;;;;;;4421908;32;20319;-87
2022/10/15 08:53:56;;;;;;;7.53;5.12;;;;;;;;;;4421494;32;20582;-87
2022/10/15 08:56:30;;;;;;;7.30;5.95;;;;;;;;;;4421785;32;20268;-87
2022/10/15 08:59:06;;;;;;;9.98;5.37;;;;;;;;;;4422453;32;20523;-87
2022/10/15 09:01:44;;;;;;;6.47;4.82;;;;;;;;;;4421407;32;20779;-87
2022/10/15 09:04:23;;;;;;;8.02;5.37;;;;;;;;;;4421667;32;20221;-87
2022/10/15 09:06:58;;;;;;;7.93;5.00;;;;;;;;;;4421637;32;20292;-87
2022/10/15 09:09:34;;;;;;;7.55;5.20;;;;;;;;;;4421213;32;20249;-88
2022/10/15 09:12:09;;;;;;;7.28;5.03;;;;;;;;;;4422099;32;20296;-87
2022/10/15 09:14:40;;;;;;;5.60;4.68;;;;;;;;;;4421865;32;20540;-87
2022/10/15 09:17:17;;;;;;;7.25;5.07;;;;;;;;;;4421995;32;20225;-87
2022/10/15 09:19:49;;;;;;;9.05;6.22;;;;;;;;;;4421938;32;20247;-88
2022/10/15 09:22:22;;;;;;;8.50;5.62;;;;;;;;;;4421119;32;20227;-88
2022/10/15 09:24:53;;;;;;;9.00;5.40;;;;;;;;;;4421906;32;20530;-88
2022/10/15 09:27:30;;;;;;;9.80;5.77;;;;;;;;;;4423809;32;20233;-87
2022/10/15 09:30:04;;;;;;;8.98;5.37;;;;;;;;;;4423529;32;20296;-87
2022/10/15 09:32:37;;;;;;;10.35;5.55;;;;;;;;;;4424756;32;20317;-88
2022/10/15 09:35:13;;;;;;;6.43;5.07;;;;;;;;;;4424802;32;20304;-87
2022/10/15 09:37:50;;;;;;;8.32;5.35;;;;;;;;;;4424679;32;20223;-87
2022/10/15 09:40:37;;;;;;;8.38;5.18;;;;;;;;;;4424523;32;20230;-87
2022/10/15 09:43:05;;;;;;;7.90;6.18;;;;;;;;;;4424774;32;20290;-87
2022/10/15 09:45:33;;;;;;;14.68;5.87;;;;;;;;;;4424493;32;20229;-87
2022/10/15 09:48:02;;;;;;;6.68;5.25;;;;;;;;;;4423475;32;20270;-87
2022/10/15 09:50:42;;;;;;;7.65;6.22;;;;;;;;;;4424222;32;20217;-87
2022/10/15 09:53:18;;;;;;;9.35;6.15;;;;;;;;;;4424707;32;20271;-87
2022/10/15 09:55:51;;;;;;;12.73;5.53;;;;;;;;;;4425076;32;20378;-88
2022/10/15 09:58:22;;;;;;;8.73;5.70;;;;;;;;;;4424659;32;20201;-87
2022/10/15 10:00:55;;;;;;;9.60;5.75;;;;;;;;;;4424758;32;20243;-87
2022/10/15 10:03:23;;;;;;;9.38;5.55;;;;;;;;;;4425174;32;20208;-87
2022/10/15 10:05:50;;;;;;;16.77;5.22;;;;;;;;;;4423960;32;20245;-87
2022/10/15 10:08:21;;;;;;;9.27;5.28;;;;;;;;;;4423751;32;20539;-86
2022/10/15 10:11:00;;;;;;;6.55;5.40;;;;;;;;;;4425013;32;20247;-88
2022/10/15 10:13:31;;;;;;;7.45;4.90;;;;;;;;;;4427117;32;20302;-87
2022/10/15 10:16:04;;;;;;;6.03;4.93;;;;;;;;;;4430654;32;20275;-87
2022/10/15 10:18:32;;;;;;;11.32;4.93;;;;;;;;;;4428807;32;20205;-87
2022/10/15 10:21:02;;;;;;;8.80;5.35;;;;;;;;;;4428165;32;20255;-86
2022/10/15 10:23:33;;;;;;;6.03;5.35;;;;;;;;;;4429800;32;20285;-87
2022/10/15 10:26:06;;;;;;;7.62;5.15;;;;;;;;;;4425058;32;20288;-87
2022/10/15 10:28:37;;;;;;;10.40;4.87;;;;;;;;;;4424788;32;20276;-87
2022/10/15 10:31:06;;;;;;;4.87;4.10;;;;;;;;;;4425944;32;20265;-87
2022/10/15 10:33:37;;;;;;;7.57;4.75;;;;;;;;;;4425057;32;20227;-86
2022/10/15 10:36:06;;;;;;;6.45;4.40;;;;;;;;;;4426302;32;20268;-87
2022/10/15 10:38:35;;;;;;;5.55;4.78;;;;;;;;;;4426495;32;20201;-86
2022/10/15 10:41:08;;;;;;;5.18;4.68;;;;;;;;;;4426600;32;20221;-87
2022/10/15 10:43:36;;;;;;;4.65;4.00;;;;;;;;;;4427093;32;20338;-87
2022/10/15 10:46:19;;;;;;;14.32;4.80;;;;;;;;;;4427950;32;20670;-87
2022/10/15 10:48:47;;;;;;;6.85;4.55;;;;;;;;;;4426955;32;20201;-86
2022/10/15 10:51:17;;;;;;;5.22;4.20;;;;;;;;;;4426933;32;20343;-87
2022/10/15 10:53:50;;;;;;;6.97;4.57;;;;;;;;;;4424736;32;20205;-87
2022/10/15 10:56:22;;;;;;;6.32;5.03;;;;;;;;;;4425571;32;20232;-86
2022/10/15 10:58:59;;;;;;;6.62;4.35;;;;;;;;;;4425254;32;20209;-88
2022/10/15 11:01:28;;;;;;;8.50;4.35;;;;;;;;;;4426366;32;20220;-87
2022/10/15 11:03:57;;;;;;;9.60;4.43;;;;;;;;;;4428243;32;20764;-87
2022/10/15 11:06:39;;;;;;;6.70;4.22;;;;;;;;;;4426899;32;20405;-88
2022/10/15 11:09:15;;;;;;;7.78;4.07;;;;;;;;;;4423376;32;20223;-87
2022/10/15 11:11:57;;;;;;;6.15;3.92;;;;;;;;;;4422638;32;20269;-87
2022/10/15 11:14:33;;;;;;;6.82;4.32;;;;;;;;;;4422880;32;20290;-87
2022/10/15 11:17:07;;;;;;;8.57;4.30;;;;;;;;;;4423242;32;20223;-87
2022/10/15 11:19:41;;;;;;;6.82;4.55;;;;;;;;;;4426728;32;20737;-87
2022/10/15 11:22:24;;;;;;;7.80;4.70;;;;;;;;;;4425841;32;20209;-88
2022/10/15 11:25:00;;;;;;;7.50;5.20;;;;;;;;;;4423430;32;20355;-87
2022/10/15 11:27:46;;;;;;;8.07;4.43;;;;;;;;;;4423795;32;20223;-88
2022/10/15 11:30:30;;;;;;;6.93;4.53;;;;;;;;;;4433483;32;20249;-87
2022/10/15 11:33:06;;;;;;;7.18;4.30;;;;;;;;;;4432193;32;20228;-87
2022/10/15 11:35:43;;;;;;;8.13;4.90;;;;;;;;;;4431947;32;20221;-88
2022/10/15 11:38:19;;;;;;;6.35;4.20;;;;;;;;;;4425363;32;20204;-88
2022/10/15 11:40:56;;;;;;;9.15;5.32;;;;;;;;;;4423167;32;20276;-87
2022/10/15 11:43:42;;;;;;;7.82;4.55;;;;;;;;;;4422499;32;20239;-88
2022/10/15 11:46:20;;;;;;;7.18;4.80;;;;;;;;;;4423145;32;20273;-87
2022/10/15 11:49:03;;;;;;;12.52;4.45;;;;;;;;;;4422101;32;20221;-88
2022/10/15 11:51:41;;;;;;;15.00;4.35;;;;;;;;;;4422685;32;20197;-87
2022/10/15 11:54:21;;;;;;;6.22;4.15;;;;;;;;;;4422695;32;20265;-88
2022/10/15 11:56:51;;;;;;;8.55;4.72;;;;;;;;;;4421893;32;20258;-88
2022/10/15 11:59:32;;;;;;;5.95;4.53;;;;;;;;;;4422182;32;20229;-88
2022/10/15 12:02:05;;;;;;;6.65;4.87;;;;;;;;;;4422423;32;20235;-88
2022/10/15 12:04:38;;;;;;;8.63;4.10;;;;;;;;;;4421995;32;20245;-88
2022/10/15 12:07:11;;;;;;;9.20;4.62;;;;;;;;;;4422402;32;20340;-87
2022/10/15 12:09:42;;;;;;;17.90;5.95;;;;;;;;;;4422448;32;20217;-87
2022/10/15 12:12:19;;;;;;;6.55;4.37;;;;;;;;;;4422298;32;20254;-87
2022/10/15 12:15:07;;;;;;;7.53;4.72;;;;;;;;;;4422441;32;20223;-87
2022/10/15 12:17:40;;;;;;;7.00;4.80;;;;;;;;;;4422194;32;20217;-88
2022/10/15 12:20:14;;;;;;;9.30;4.97;;;;;;;;;;4422636;32;20190;-88
2022/10/15 12:22:55;;;;;;;7.53;5.07;;;;;;;;;;4421930;32;20600;-88
2022/10/15 12:25:49;;;;;;;11.02;4.22;;;;;;;;;;4422453;32;20209;-87
2022/10/15 12:28:22;;;;;;;7.37;4.45;;;;;;;;;;4394632;32;20248;-87
2022/10/15 12:31:00;;;;;;;6.28;4.25;;;;;;;;;;4422368;32;20231;-88
2022/10/15 12:33:36;;;;;;;7.72;5.00;;;;;;;;;;4421807;32;20246;-87
2022/10/15 12:36:08;;;;;;;9.43;4.95;;;;;;;;;;4421266;32;20255;-87
2022/10/15 12:38:38;;;;;;;10.43;5.05;;;;;;;;;;4422517;32;20345;-87
2022/10/15 12:41:08;;;;;;;6.45;5.20;;;;;;;;;;4421831;32;20276;-87
2022/10/15 12:43:40;;;;;;;7.93;5.35;;;;;;;;;;4421725;32;20296;-87
2022/10/15 12:46:12;;;;;;;8.25;4.80;;;;;;;;;;4422451;32;20215;-87
2022/10/15 12:48:42;;;;;;;6.60;4.50;;;;;;;;;;4421477;32;20263;-88
2022/10/15 12:51:40;;;;;;;6.25;4.50;;;;;;;;;;4422078;32;20263;-88
2022/10/15 12:54:45;;;;;;;7.75;4.93;;;;;;;;;;4422166;32;20271;-87
2022/10/15 12:57:58;;;;;;;9.77;4.70;;;;;;;;;;4422383;32;20213;-87
2022/10/15 13:00:40;;;;;;;10.15;5.53;;;;;;;;;;4385779;32;20259;-87
2022/10/15 13:03:32;;;;;;;9.85;5.18;;;;;;;;;;4424566;32;20297;-87
2022/10/15 13:06:17;;;;;;;8.23;5.78;;;;;;;;;;4424149;32;20247;-87
2022/10/15 13:08:47;;;;;;;8.55;5.78;;;;;;;;;;4424590;32;20283;-87
2022/10/15 13:11:21;;;;;;;12.65;6.65;;;;;;;;;;4424278;32;20512;-87
2022/10/15 13:13:51;;;;;;;9.65;5.43;;;;;;;;;;4424351;32;20225;-87
2022/10/15 13:16:18;;;;;;;6.60;4.93;;;;;;;;;;4424791;32;20219;-87
2022/10/15 13:18:51;;;;;;;10.32;6.60;;;;;;;;;;4424279;32;20289;-87
2022/10/15 13:21:18;;;;;;;6.37;5.57;;;;;;;;;;4424818;32;20244;-88
2022/10/15 13:23:49;;;;;;;8.25;4.93;;;;;;;;;;4424255;32;20360;-88
2022/10/15 13:26:19;;;;;;;10.70;4.75;;;;;;;;;;4424708;32;20264;-87
2022/10/15 13:28:51;;;;;;;7.97;5.15;;;;;;;;;;4423071;32;20233;-87
2022/10/15 13:31:23;;;;;;;6.15;4.18;;;;;;;;;;4424839;32;20205;-87
2022/10/15 13:33:53;;;;;;;9.73;4.53;;;;;;;;;;4424084;32;20270;-87
2022/10/15 13:36:24;;;;;;;5.87;4.20;;;;;;;;;;4424087;32;20299;-87
2022/10/15 13:38:56;;;;;;;5.90;4.70;;;;;;;;;;4424130;32;20293;-87
2022/10/15 13:41:26;;;;;;;6.47;5.25;;;;;;;;;;4424503;32;20313;-87
2022/10/15 13:43:57;;;;;;;8.95;6.80;;;;;;;;;;4423911;32;20221;-87
2022/10/15 13:46:25;;;;;;;10.93;8.38;;;;;;;;;;4424774;32;20526;-87
2022/10/15 13:49:00;;;;;;;19.92;11.63;;;;;;;;;;4422499;32;20715;-88
2022/10/15 13:51:33;;;;;;;14.25;9.00;;;;;;;;;;4424445;32;20232;-87
2022/10/15 13:54:02;;;;;;;8.20;6.03;;;;;;;;;;4424310;32;20243;-87
2022/10/15 13:56:31;;;;;;;8.25;6.32;;;;;;;;;;4424385;32;20660;-88
2022/10/15 13:59:01;;;;;;;14.52;5.97;;;;;;;;;;4423887;32;20250;-87
2022/10/15 14:01:30;;;;;;;7.97;5.80;;;;;;;;;;4424264;32;20209;-88
2022/10/15 14:04:03;;;;;;;18.15;6.97;;;;;;;;;;4422629;32;20245;-88
2022/10/15 14:06:31;;;;;;;8.05;6.10;;;;;;;;;;4424199;32;20247;-88
2022/10/15 14:09:01;;;;;;;9.55;5.65;;;;;;;;;;4423335;32;20259;-87
2022/10/15 14:11:29;;;;;;;10.90;5.43;;;;;;;;;;4423900;32;20205;-87
2022/10/15 14:13:58;;;;;;;10.07;5.40;;;;;;;;;;4423195;32;20236;-87
2022/10/15 14:16:29;;;;;;;7.57;5.60;;;;;;;;;;4423995;32;20299;-87
2022/10/15 14:19:07;;;;;;;10.43;6.22;;;;;;;;;;4424089;32;20290;-87
2022/10/15 14:21:35;;;;;;;10.88;6.50;;;;;;;;;;4423680;32;20223;-88
2022/10/15 14:24:06;;;;;;;9.95;5.97;;;;;;;;;;4423178;32;20224;-87
2022/10/15 14:26:34;;;;;;;9.63;6.22;;;;;;;;;;4423392;32;20511;-88
2022/10/15 14:29:02;;;;;;;15.63;6.82;;;;;;;;;;4423303;32;20213;-87
2022/10/15 14:31:39;;;;;;;9.38;7.05;;;;;;;;;;4423790;32;20243;-87
2022/10/15 14:34:30;;;;;;;12.70;7.45;;;;;;;;;;4423565;32;20299;-88
2022/10/15 14:36:57;;;;;;;14.75;6.78;;;;;;;;;;4422185;32;20231;-87
2022/10/15 14:39:33;;;;;;;13.48;9.90;;;;;;;;;;4422424;32;20306;-88
2022/10/15 14:42:02;;;;;;;11.75;7.07;;;;;;;;;;4423668;32;20204;-87
2022/10/15 14:44:42;;;;;;;10.57;6.55;;;;;;;;;;4422936;32;20311;-87
2022/10/15 14:47:19;;;;;;;11.73;7.65;;;;;;;;;;4423556;32;20568;-88
2022/10/15 14:49:50;;;;;;;9.73;7.95;;;;;;;;;;4422183;32;20591;-87
2022/10/15 14:52:19;;;;;;;13.35;7.45;;;;;;;;;;4422943;32;20584;-87
2022/10/15 14:54:57;;;;;;;14.23;8.32;;;;;;;;;;4422833;32;20293;-88
2022/10/15 14:57:28;;;;;;;18.48;9.52;;;;;;;;;;4422309;32;20263;-87
2022/10/15 14:59:56;;;;;;;14.10;11.25;;;;;;;;;;4422953;32;20233;-88